Time;durP1;ratioP1;P1;durP2;ratioP2;P2;SDS_P1;SDS_P2;PMS_P1;PMS_P2;Temp;Humidity;BMP_temperature;BMP_pressure;BME280_temperature;BME280_humidity;BME280_pressure;Samples;Min_cycle;Max_cycle;Signal;HPM_P1;HPM_P2
2022/03/03 00:01:55;;;;;;;0.40;0.40;;;-0.70;99.90;;;;;;5055549;28;20471;-68
2022/03/03 00:04:42;;;;;;;0.40;0.40;;;-0.70;99.90;;;;;;5055409;28;20453;-68
2022/03/03 00:07:30;;;;;;;0.50;0.50;;;-0.70;99.90;;;;;;5055490;28;20478;-68
2022/03/03 00:10:17;;;;;;;1.07;1.07;;;-0.80;99.90;;;;;;5055700;28;20557;-68
2022/03/03 00:13:05;;;;;;;0.50;0.50;;;-0.80;99.90;;;;;;5055354;28;20859;-68
2022/03/03 00:15:52;;;;;;;0.40;0.40;;;-0.80;99.90;;;;;;5055656;28;20465;-68
2022/03/03 00:18:38;;;;;;;2.30;2.10;;;-0.80;99.90;;;;;;5055273;28;20422;-69
2022/03/03 00:21:26;;;;;;;0.50;0.50;;;-0.80;99.90;;;;;;5055701;28;21015;-68
2022/03/03 00:24:14;;;;;;;0.50;0.50;;;-0.70;99.90;;;;;;5054425;28;21032;-68
2022/03/03 00:27:01;;;;;;;0.50;0.50;;;-0.80;99.90;;;;;;5054112;28;20429;-68
2022/03/03 00:29:47;;;;;;;0.50;0.50;;;-0.80;99.90;;;;;;5055708;28;20515;-68
2022/03/03 00:32:40;;;;;;;0.50;0.50;;;-0.80;99.90;;;;;;5055594;28;20425;-66
2022/03/03 00:35:27;;;;;;;0.40;0.40;;;-0.80;99.90;;;;;;5055611;28;20449;-67
2022/03/03 00:38:14;;;;;;;0.50;0.50;;;-0.80;99.90;;;;;;5055765;28;20420;-67
2022/03/03 00:41:02;;;;;;;0.50;0.50;;;-0.70;99.90;;;;;;5055494;28;20429;-68
2022/03/03 00:43:49;;;;;;;0.47;0.47;;;-0.80;99.90;;;;;;5055232;28;20945;-68
2022/03/03 00:46:36;;;;;;;1.13;1.13;;;-0.80;99.90;;;;;;5054921;28;20424;-68
2022/03/03 00:49:23;;;;;;;0.50;0.50;;;-0.80;99.90;;;;;;5055091;28;21074;-67
2022/03/03 00:52:10;;;;;;;0.50;0.50;;;-0.90;99.90;;;;;;5055121;28;20426;-68
2022/03/03 00:54:57;;;;;;;0.70;0.70;;;-0.90;99.90;;;;;;5054483;28;20535;-68
2022/03/03 00:57:45;;;;;;;0.50;0.50;;;-0.90;99.90;;;;;;5054513;28;20946;-67
2022/03/03 01:00:32;;;;;;;0.40;0.40;;;-1.00;99.90;;;;;;5054256;28;20972;-68
2022/03/03 01:03:19;;;;;;;0.47;0.47;;;-1.10;99.90;;;;;;5054334;28;20967;-68
2022/03/03 01:06:06;;;;;;;0.50;0.50;;;-1.20;99.90;;;;;;5054265;28;20510;-68
2022/03/03 01:08:53;;;;;;;0.40;0.40;;;-1.20;99.90;;;;;;5053770;28;20468;-67
2022/03/03 01:11:40;;;;;;;0.50;0.50;;;-1.10;99.90;;;;;;5056746;28;20425;-68
2022/03/03 01:14:28;;;;;;;0.40;0.40;;;-1.20;99.90;;;;;;5070626;28;20450;-68
2022/03/03 01:17:15;;;;;;;0.50;0.50;;;-1.20;99.90;;;;;;5071796;28;20432;-67
2022/03/03 01:20:03;;;;;;;0.40;0.40;;;-1.30;99.90;;;;;;5073132;28;20417;-68
2022/03/03 01:22:49;;;;;;;0.50;0.50;;;-1.30;99.90;;;;;;5074957;28;20486;-68
2022/03/03 01:25:36;;;;;;;0.50;0.50;;;-1.30;99.90;;;;;;5074729;28;20793;-68
2022/03/03 01:28:23;;;;;;;0.40;0.40;;;-1.10;99.90;;;;;;5074015;28;20455;-68
2022/03/03 01:31:12;;;;;;;0.50;0.50;;;-1.00;99.90;;;;;;5071480;28;20425;-69
2022/03/03 01:33:58;;;;;;;0.50;0.50;;;-0.90;99.90;;;;;;5074030;28;20433;-68
2022/03/03 01:36:45;;;;;;;0.80;0.80;;;-0.80;99.90;;;;;;5073140;28;20490;-68
2022/03/03 01:39:32;;;;;;;2.10;2.00;;;-0.80;99.90;;;;;;5072932;28;20483;-68
2022/03/03 01:42:19;;;;;;;0.40;0.40;;;-0.80;99.90;;;;;;5072379;28;20429;-69
2022/03/03 01:45:08;;;;;;;0.40;0.40;;;-0.80;99.90;;;;;;5055684;28;20453;-68
2022/03/03 01:47:56;;;;;;;0.50;0.50;;;-0.70;99.90;;;;;;5052868;28;20432;-67
2022/03/03 01:50:43;;;;;;;0.80;0.80;;;-0.80;99.90;;;;;;5054048;28;20487;-68
2022/03/03 01:53:30;;;;;;;0.40;0.40;;;-0.70;99.90;;;;;;5052325;28;20933;-67
2022/03/03 01:56:18;;;;;;;0.87;0.87;;;-0.70;99.90;;;;;;5052263;28;20448;-67
2022/03/03 01:59:05;;;;;;;0.50;0.50;;;-0.70;99.90;;;;;;5053429;28;20420;-68
2022/03/03 02:01:52;;;;;;;0.50;0.50;;;-0.80;99.90;;;;;;5054603;28;20429;-67
2022/03/03 02:04:41;;;;;;;0.50;0.50;;;-0.90;99.90;;;;;;5053288;28;20456;-68
2022/03/03 02:07:28;;;;;;;0.83;0.83;;;-0.90;99.90;;;;;;5052408;28;20494;-67
2022/03/03 02:10:15;;;;;;;1.43;1.33;;;-1.00;99.90;;;;;;5053435;28;20850;-68
2022/03/03 02:13:02;;;;;;;0.40;0.40;;;-1.10;99.90;;;;;;5053528;28;20417;-68
2022/03/03 02:15:50;;;;;;;0.50;0.50;;;-1.00;99.90;;;;;;5053337;28;20484;-68
2022/03/03 02:18:40;;;;;;;0.50;0.50;;;-0.90;99.90;;;;;;5052262;28;20425;-68
2022/03/03 02:21:30;;;;;;;0.50;0.50;;;-0.90;99.90;;;;;;5051784;28;20968;-68
2022/03/03 02:24:17;;;;;;;0.50;0.50;;;-0.80;99.90;;;;;;5049468;28;20460;-68
2022/03/03 02:27:06;;;;;;;0.50;0.50;;;-0.80;99.90;;;;;;5051983;28;20941;-67
2022/03/03 02:29:53;;;;;;;0.50;0.50;;;-0.70;99.90;;;;;;5053108;28;20463;-68
2022/03/03 02:32:40;;;;;;;0.50;0.50;;;-0.70;99.90;;;;;;5052465;28;20507;-68
2022/03/03 02:35:29;;;;;;;0.40;0.40;;;-0.60;99.90;;;;;;5053126;28;20440;-68
2022/03/03 02:38:17;;;;;;;0.40;0.40;;;-0.60;99.90;;;;;;5052261;28;20515;-68
2022/03/03 02:41:04;;;;;;;0.47;0.47;;;-0.60;99.90;;;;;;5052540;28;20444;-68
2022/03/03 02:43:51;;;;;;;4.00;3.80;;;-0.60;99.90;;;;;;5052273;28;20498;-69
2022/03/03 02:46:38;;;;;;;0.50;0.50;;;-0.70;99.90;;;;;;5052269;28;20433;-67
2022/03/03 02:49:25;;;;;;;0.43;0.43;;;-0.50;99.90;;;;;;5052269;28;20987;-68
2022/03/03 02:52:12;;;;;;;0.47;0.47;;;-0.40;99.90;;;;;;5052166;28;20429;-70
2022/03/03 02:55:00;;;;;;;0.50;0.50;;;-0.30;99.90;;;;;;5052345;28;20860;-68
2022/03/03 02:57:56;;;;;;;0.50;0.50;;;-0.20;99.90;;;;;;5052618;28;20424;-68
2022/03/03 03:00:44;;;;;;;0.50;0.50;;;-0.20;99.90;;;;;;5052567;28;20924;-67
2022/03/03 03:03:32;;;;;;;0.50;0.50;;;-0.10;99.90;;;;;;5052114;28;20429;-67
2022/03/03 03:06:19;;;;;;;1.20;1.20;;;-0.10;99.90;;;;;;5052586;28;20447;-66
2022/03/03 03:09:06;;;;;;;0.50;0.50;;;0.00;99.90;;;;;;5052697;28;20443;-68
2022/03/03 03:11:54;;;;;;;0.50;0.50;;;0.10;99.90;;;;;;5051755;28;20999;-70
2022/03/03 03:14:41;;;;;;;1.23;1.23;;;0.10;99.90;;;;;;5051910;28;21007;-67
2022/03/03 03:17:27;;;;;;;0.40;0.40;;;-0.10;99.90;;;;;;5052561;28;20507;-67
2022/03/03 03:20:15;;;;;;;0.80;0.80;;;0.00;99.90;;;;;;5052598;28;20514;-67
2022/03/03 03:23:01;;;;;;;1.67;1.57;;;-0.10;99.90;;;;;;5052234;28;20505;-68
2022/03/03 03:25:49;;;;;;;0.67;0.67;;;-0.20;99.90;;;;;;5051989;28;20861;-68
2022/03/03 03:28:37;;;;;;;1.63;1.57;;;-0.40;99.90;;;;;;5052148;28;20696;-67
2022/03/03 03:31:24;;;;;;;0.50;0.50;;;-0.50;99.90;;;;;;5051965;28;20567;-67
2022/03/03 03:34:11;;;;;;;0.50;0.50;;;-0.70;99.90;;;;;;5054152;28;20431;-68
2022/03/03 03:36:58;;;;;;;0.50;0.50;;;-0.60;99.90;;;;;;5055869;28;20498;-67
2022/03/03 03:39:45;;;;;;;4.63;4.17;;;-0.90;99.90;;;;;;5054916;28;20428;-68
2022/03/03 03:42:32;;;;;;;0.60;0.60;;;-1.00;99.90;;;;;;5055138;28;20525;-68
2022/03/03 03:45:20;;;;;;;0.50;0.50;;;-1.10;99.90;;;;;;5054529;28;20510;-68
2022/03/03 03:48:07;;;;;;;0.60;0.60;;;-1.20;99.90;;;;;;5055325;28;20560;-68
2022/03/03 03:50:54;;;;;;;7.03;3.63;;;-1.30;99.90;;;;;;5055396;28;20479;-67
2022/03/03 03:53:41;;;;;;;3.07;2.40;;;-1.50;99.90;;;;;;5055237;28;20845;-66
2022/03/03 03:56:28;;;;;;;1.87;1.77;;;-1.50;99.90;;;;;;5055522;28;20420;-68
2022/03/03 03:59:15;;;;;;;4.30;3.90;;;-1.60;99.90;;;;;;5055677;28;20432;-67
2022/03/03 04:02:03;;;;;;;2.50;2.30;;;-1.60;99.90;;;;;;5054995;28;20810;-67
2022/03/03 04:04:50;;;;;;;0.60;0.60;;;-1.70;99.90;;;;;;5055126;28;20531;-67
2022/03/03 04:07:39;;;;;;;0.43;0.43;;;-1.70;99.90;;;;;;5055911;28;20795;-67
2022/03/03 04:10:28;;;;;;;0.50;0.50;;;-1.80;99.90;;;;;;5055444;28;20476;-67
2022/03/03 04:13:16;;;;;;;0.40;0.40;;;-1.80;99.90;;;;;;5055021;28;20433;-67
2022/03/03 04:16:03;;;;;;;0.50;0.50;;;-1.80;99.90;;;;;;5054895;28;20460;-67
2022/03/03 04:18:51;;;;;;;0.40;0.40;;;-1.80;99.90;;;;;;5054844;28;20474;-67
2022/03/03 04:21:38;;;;;;;0.50;0.50;;;-1.80;99.90;;;;;;5054908;28;20468;-67
2022/03/03 04:24:24;;;;;;;2.00;1.70;;;-1.60;99.90;;;;;;5055423;28;20445;-67
2022/03/03 04:27:11;;;;;;;0.50;0.50;;;-1.70;99.90;;;;;;5054990;28;20483;-67
2022/03/03 04:29:58;;;;;;;0.50;0.50;;;-1.70;99.90;;;;;;5054854;28;20465;-67
2022/03/03 04:32:45;;;;;;;0.50;0.50;;;-1.70;99.90;;;;;;5055023;28;20514;-67
2022/03/03 04:35:33;;;;;;;0.47;0.47;;;-1.70;99.90;;;;;;5054488;28;20477;-67
2022/03/03 04:38:20;;;;;;;0.40;0.40;;;-1.70;99.90;;;;;;5053786;28;20421;-67
2022/03/03 04:41:07;;;;;;;0.50;0.50;;;-1.70;99.90;;;;;;5055546;28;20429;-68
2022/03/03 04:43:54;;;;;;;0.50;0.50;;;-1.90;99.90;;;;;;5054644;28;20429;-67
2022/03/03 04:46:41;;;;;;;0.73;0.73;;;-2.00;99.90;;;;;;5053698;28;20853;-67
2022/03/03 04:49:28;;;;;;;1.03;1.03;;;-2.00;99.90;;;;;;5054425;28;20425;-68
2022/03/03 04:52:16;;;;;;;1.07;1.07;;;-2.00;99.90;;;;;;5054158;28;20443;-67
2022/03/03 04:55:04;;;;;;;0.50;0.50;;;-2.00;99.90;;;;;;5054151;28;20481;-67
2022/03/03 04:57:51;;;;;;;4.10;3.43;;;-2.00;99.90;;;;;;5054006;28;20559;-67
2022/03/03 05:00:37;;;;;;;0.50;0.50;;;-2.10;99.90;;;;;;5054241;28;20428;-67
2022/03/03 05:03:24;;;;;;;0.50;0.50;;;-2.10;99.90;;;;;;5054178;28;20494;-67
2022/03/03 05:06:11;;;;;;;0.43;0.43;;;-2.20;99.90;;;;;;5054388;28;20961;-67
2022/03/03 05:08:59;;;;;;;0.50;0.50;;;-2.30;99.90;;;;;;5054754;28;20539;-68
2022/03/03 05:11:46;;;;;;;0.50;0.50;;;-2.30;99.90;;;;;;5053628;28;20477;-67
2022/03/03 05:14:33;;;;;;;1.43;1.43;;;-2.30;99.90;;;;;;5054056;28;20469;-67
2022/03/03 05:17:20;;;;;;;0.40;0.40;;;-2.40;99.90;;;;;;5053912;28;20456;-68
2022/03/03 05:20:08;;;;;;;1.57;1.53;;;-2.50;99.90;;;;;;5054276;28;20424;-68
2022/03/03 05:22:55;;;;;;;0.50;0.50;;;-2.50;99.90;;;;;;5053792;28;20429;-67
2022/03/03 05:25:43;;;;;;;0.50;0.50;;;-2.50;99.90;;;;;;5053694;28;20437;-67
2022/03/03 05:28:30;;;;;;;1.03;1.03;;;-2.60;99.90;;;;;;5053684;28;20422;-68
2022/03/03 05:31:17;;;;;;;0.50;0.50;;;-2.60;99.90;;;;;;5054007;28;20473;-67
2022/03/03 05:34:04;;;;;;;1.37;1.37;;;-2.60;99.90;;;;;;5053715;28;20425;-68
2022/03/03 05:36:51;;;;;;;0.50;0.50;;;-2.50;99.90;;;;;;5054689;28;20448;-68
2022/03/03 05:39:38;;;;;;;0.50;0.50;;;-2.60;99.90;;;;;;5054496;28;20439;-68
2022/03/03 05:42:26;;;;;;;1.63;1.53;;;-2.60;99.90;;;;;;5053835;28;20512;-68
2022/03/03 05:45:14;;;;;;;0.40;0.40;;;-2.60;99.90;;;;;;5053569;28;20567;-67
2022/03/03 05:48:02;;;;;;;0.70;0.70;;;-2.60;99.90;;;;;;5054023;28;20508;-67
2022/03/03 05:50:49;;;;;;;0.50;0.50;;;-2.60;99.90;;;;;;5053574;28;20548;-68
2022/03/03 05:53:37;;;;;;;0.50;0.50;;;-2.60;99.90;;;;;;5053089;28;20476;-68
2022/03/03 05:56:24;;;;;;;0.50;0.50;;;-2.50;99.90;;;;;;5053834;28;20941;-68
2022/03/03 05:59:15;;;;;;;1.47;1.47;;;-2.50;99.90;;;;;;5053115;28;20421;-68
2022/03/03 06:02:03;;;;;;;0.87;0.60;;;-2.50;99.90;;;;;;5051505;28;20425;-68
2022/03/03 06:04:51;;;;;;;0.60;0.60;;;-2.50;99.90;;;;;;5052146;28;20441;-68
2022/03/03 06:07:45;;;;;;;3.33;1.33;;;-2.50;99.90;;;;;;5052962;28;20933;-68
2022/03/03 06:10:33;;;;;;;0.50;0.50;;;-2.50;99.90;;;;;;5053124;28;20599;-68
2022/03/03 06:13:23;;;;;;;2.37;1.47;;;-2.50;99.90;;;;;;5052504;28;20429;-68
2022/03/03 06:16:12;;;;;;;23.43;1.73;;;-2.40;99.90;;;;;;5052904;28;20476;-68
2022/03/03 06:19:00;;;;;;;0.50;0.50;;;-2.40;99.90;;;;;;5053131;28;20567;-68
2022/03/03 06:21:47;;;;;;;0.50;0.50;;;-2.40;99.90;;;;;;5052829;28;20422;-68
2022/03/03 06:24:34;;;;;;;2.40;1.13;;;-2.40;99.90;;;;;;5053212;28;21002;-68
2022/03/03 06:27:21;;;;;;;0.50;0.50;;;-2.30;99.90;;;;;;5053456;28;20556;-68
2022/03/03 06:30:09;;;;;;;0.50;0.50;;;-2.30;99.90;;;;;;5052277;28;20431;-68
2022/03/03 06:32:57;;;;;;;0.63;0.63;;;-2.30;99.90;;;;;;5053197;28;20421;-68
2022/03/03 06:35:44;;;;;;;1.57;0.80;;;-2.20;99.90;;;;;;5052933;28;20477;-68
2022/03/03 06:38:31;;;;;;;0.60;0.60;;;-2.30;99.90;;;;;;5053306;28;20469;-68
2022/03/03 06:41:18;;;;;;;0.90;0.90;;;-2.20;99.90;;;;;;5051429;28;20429;-68
2022/03/03 06:44:07;;;;;;;2.67;2.10;;;-2.20;99.90;;;;;;5053048;28;20432;-68
2022/03/03 06:46:54;;;;;;;0.70;0.70;;;-2.10;99.90;;;;;;5053287;28;20425;-68
2022/03/03 06:49:43;;;;;;;2.10;1.80;;;-2.20;99.90;;;;;;5052600;28;20941;-69
2022/03/03 06:52:33;;;;;;;3.10;2.47;;;-2.10;99.90;;;;;;5052808;28;20417;-69
2022/03/03 06:55:21;;;;;;;2.80;2.70;;;-2.10;99.90;;;;;;5057432;28;20459;-67
2022/03/03 06:58:10;;;;;;;0.50;0.50;;;-2.20;99.90;;;;;;5054787;28;20803;-67
2022/03/03 07:00:57;;;;;;;1.37;1.20;;;-2.20;99.90;;;;;;5051451;28;20498;-68
2022/03/03 07:03:45;;;;;;;1.63;1.00;;;-2.10;99.90;;;;;;5052155;28;20818;-68
2022/03/03 07:06:34;;;;;;;0.60;0.60;;;-2.00;99.90;;;;;;5060511;28;20421;-69
2022/03/03 07:09:21;;;;;;;1.17;1.17;;;-1.80;99.90;;;;;;5074504;28;20429;-69
2022/03/03 07:12:08;;;;;;;0.50;0.50;;;-1.80;99.90;;;;;;5075767;28;20461;-68
2022/03/03 07:14:55;;;;;;;1.70;1.70;;;-1.70;99.90;;;;;;5076719;28;20448;-69
2022/03/03 07:17:49;;;;;;;1.00;1.00;;;-1.60;99.90;;;;;;5072750;28;20456;-73
2022/03/03 07:20:46;;;;;;;8.70;5.03;;;-1.60;99.90;;;;;;5074924;28;20417;-69
2022/03/03 07:23:38;;;;;;;1.00;1.00;;;-1.50;99.90;;;;;;5073285;28;20441;-69
2022/03/03 07:26:26;;;;;;;0.70;0.70;;;-1.40;99.90;;;;;;5075735;28;20467;-69
2022/03/03 07:29:17;;;;;;;3.67;1.67;;;-1.40;99.90;;;;;;5074542;28;20409;-68
2022/03/03 07:32:07;;;;;;;2.43;2.20;;;-1.30;99.90;;;;;;5069239;28;20467;-69
2022/03/03 07:35:01;;;;;;;2.30;2.20;;;-1.20;99.90;;;;;;5076064;28;20445;-69
2022/03/03 07:37:53;;;;;;;1.07;1.07;;;-1.20;99.90;;;;;;5070619;28;20436;-69
2022/03/03 07:40:42;;;;;;;3.23;2.90;;;-1.10;99.90;;;;;;5058841;28;20925;-69
2022/03/03 07:43:30;;;;;;;0.50;0.50;;;-1.10;99.90;;;;;;5070740;28;20436;-68
2022/03/03 07:46:17;;;;;;;0.50;0.50;;;-1.10;99.90;;;;;;5072620;28;20490;-68
2022/03/03 07:49:04;;;;;;;1.63;1.53;;;-1.10;99.90;;;;;;5074263;28;20875;-69
2022/03/03 07:51:51;;;;;;;0.50;0.50;;;-1.00;99.90;;;;;;5072554;28;20490;-69
2022/03/03 07:54:38;;;;;;;2.43;2.30;;;-0.90;99.90;;;;;;5040186;28;20454;-69
2022/03/03 07:57:34;;;;;;;0.40;0.40;;;-0.90;99.90;;;;;;5046306;28;20441;-68
2022/03/03 08:00:22;;;;;;;0.50;0.50;;;-0.80;99.90;;;;;;5051024;28;20421;-68
2022/03/03 08:03:13;;;;;;;0.70;0.70;;;-0.80;99.90;;;;;;5054837;28;20445;-68
2022/03/03 08:06:00;;;;;;;2.43;2.23;;;-0.60;99.90;;;;;;5055091;28;20449;-69
2022/03/03 08:08:47;;;;;;;0.70;0.70;;;-0.70;99.90;;;;;;5035955;28;20433;-68
2022/03/03 08:11:36;;;;;;;2.40;1.50;;;-0.70;99.90;;;;;;5044255;28;20886;-69
2022/03/03 08:14:24;;;;;;;0.70;0.70;;;-0.50;99.90;;;;;;5055275;28;21098;-69
2022/03/03 08:17:15;;;;;;;2.63;1.10;;;-0.40;99.90;;;;;;5056027;28;20790;-68
2022/03/03 08:20:05;;;;;;;7.10;4.63;;;-0.50;99.90;;;;;;5056043;28;20449;-68
2022/03/03 08:22:52;;;;;;;3.40;2.50;;;-0.40;99.90;;;;;;5055899;28;20433;-68
2022/03/03 08:25:39;;;;;;;2.00;1.57;;;-0.30;99.90;;;;;;5045537;28;20448;-69
2022/03/03 08:28:27;;;;;;;14.80;3.33;;;0.00;99.90;;;;;;5051981;28;20433;-68
2022/03/03 08:31:20;;;;;;;1.03;1.03;;;0.10;99.90;;;;;;5050398;28;20542;-68
2022/03/03 08:34:16;;;;;;;8.77;4.90;;;0.00;99.90;;;;;;5046849;28;20444;-69
2022/03/03 08:37:09;;;;;;;2.60;1.63;;;-0.20;99.90;;;;;;5049778;28;20452;-69
2022/03/03 08:39:58;;;;;;;2.13;2.03;;;-0.30;99.90;;;;;;5047253;28;20441;-68
2022/03/03 08:42:48;;;;;;;2.73;1.80;;;-0.30;99.90;;;;;;5054942;28;20429;-68
2022/03/03 08:45:36;;;;;;;0.83;0.83;;;-0.30;99.90;;;;;;5053872;28;20445;-69
2022/03/03 08:48:30;;;;;;;0.97;0.97;;;-0.20;99.90;;;;;;5055529;28;20930;-68
2022/03/03 08:51:19;;;;;;;0.50;0.50;;;0.00;99.90;;;;;;5056147;28;20488;-68
2022/03/03 08:54:06;;;;;;;1.10;1.10;;;0.30;99.90;;;;;;5056215;28;20807;-68
2022/03/03 08:56:53;;;;;;;0.50;0.50;;;0.60;99.90;;;;;;5051609;28;20487;-68
2022/03/03 08:59:40;;;;;;;0.50;0.50;;;1.00;99.90;;;;;;5053501;28;20425;-69
2022/03/03 09:02:27;;;;;;;0.80;0.80;;;1.00;99.90;;;;;;5054755;28;20426;-68
2022/03/03 09:05:16;;;;;;;3.53;3.23;;;0.80;99.90;;;;;;5054055;28;20441;-69
2022/03/03 09:08:03;;;;;;;1.23;1.07;;;0.80;99.90;;;;;;5054010;28;20482;-69
2022/03/03 09:10:50;;;;;;;0.80;0.80;;;0.70;99.90;;;;;;5053658;28;20475;-69
2022/03/03 09:13:38;;;;;;;0.60;0.60;;;0.60;99.90;;;;;;5052815;28;21059;-69
2022/03/03 09:16:26;;;;;;;3.13;1.47;;;0.70;99.90;;;;;;5054890;28;20822;-68
2022/03/03 09:19:13;;;;;;;0.53;0.53;;;1.00;99.90;;;;;;5052966;28;20504;-68
2022/03/03 09:22:03;;;;;;;0.50;0.50;;;1.00;99.90;;;;;;5052045;28;20421;-69
2022/03/03 09:24:52;;;;;;;0.50;0.50;;;1.20;99.90;;;;;;5055223;28;20544;-69
2022/03/03 09:27:39;;;;;;;2.73;1.33;;;1.40;99.90;;;;;;5054023;28;20437;-69
2022/03/03 09:30:28;;;;;;;0.90;0.90;;;1.30;99.90;;;;;;5052358;28;20937;-70
2022/03/03 09:33:15;;;;;;;1.90;1.53;;;1.30;99.90;;;;;;5052298;28;20441;-69
2022/03/03 09:36:02;;;;;;;0.40;0.40;;;1.40;99.90;;;;;;5052373;28;20514;-69
2022/03/03 09:38:50;;;;;;;0.50;0.50;;;1.60;99.90;;;;;;5053949;28;20421;-69
2022/03/03 09:41:37;;;;;;;0.90;0.90;;;1.80;99.90;;;;;;5051304;28;20963;-69
2022/03/03 09:44:24;;;;;;;0.40;0.40;;;2.00;99.90;;;;;;5052090;28;20471;-69
2022/03/03 09:47:12;;;;;;;1.00;0.90;;;1.80;99.90;;;;;;5052614;28;20609;-68
2022/03/03 09:50:00;;;;;;;0.60;0.60;;;1.70;99.90;;;;;;5053180;28;20832;-68
2022/03/03 09:52:47;;;;;;;2.50;1.20;;;1.70;99.90;;;;;;5052440;28;20472;-69
2022/03/03 09:55:36;;;;;;;1.47;1.37;;;1.30;99.90;;;;;;5052459;28;20977;-69
2022/03/03 09:58:23;;;;;;;0.50;0.50;;;1.30;99.90;;;;;;5051858;28;20940;-68
2022/03/03 10:01:11;;;;;;;0.60;0.60;;;1.30;99.90;;;;;;5050990;28;20506;-68
2022/03/03 10:04:13;;;;;;;1.27;1.27;;;1.30;99.90;;;;;;5033922;28;20421;-67
2022/03/03 10:07:05;;;;;;;0.47;0.47;;;1.50;99.90;;;;;;5035371;28;20433;-68
2022/03/03 10:10:05;;;;;;;0.57;0.57;;;1.60;99.90;;;;;;5041200;28;20552;-67
2022/03/03 10:12:57;;;;;;;0.87;0.87;;;1.70;99.90;;;;;;5049269;28;20460;-68
2022/03/03 10:15:45;;;;;;;2.93;2.83;;;1.70;99.90;;;;;;5046771;28;20457;-68
2022/03/03 10:18:32;;;;;;;0.53;0.53;;;1.80;99.90;;;;;;5052426;28;20470;-68
2022/03/03 10:21:19;;;;;;;1.17;1.07;;;1.70;99.90;;;;;;5052100;28;20486;-67
2022/03/03 10:24:15;;;;;;;0.50;0.50;;;1.60;99.90;;;;;;5053467;28;20508;-68
2022/03/03 10:27:05;;;;;;;0.60;0.60;;;1.70;99.90;;;;;;5055365;28;20471;-68
2022/03/03 10:29:53;;;;;;;0.50;0.50;;;2.00;99.90;;;;;;5056812;28;20421;-69
2022/03/03 10:32:40;;;;;;;0.40;0.40;;;2.30;99.90;;;;;;5053412;28;20500;-68
2022/03/03 10:35:27;;;;;;;0.40;0.40;;;2.70;99.90;;;;;;5055506;28;20448;-68
2022/03/03 10:38:15;;;;;;;0.50;0.50;;;2.90;99.90;;;;;;5053954;28;20440;-67
2022/03/03 10:41:02;;;;;;;1.80;1.70;;;3.10;99.90;;;;;;5057271;28;20475;-68
2022/03/03 10:43:49;;;;;;;0.67;0.67;;;3.30;99.90;;;;;;5054420;28;20436;-68
2022/03/03 10:46:39;;;;;;;0.40;0.40;;;3.50;99.90;;;;;;5063379;28;20436;-67
2022/03/03 10:49:27;;;;;;;0.50;0.50;;;3.60;99.90;;;;;;5058945;28;20972;-67
2022/03/03 10:52:17;;;;;;;3.03;0.97;;;3.60;99.90;;;;;;5058093;28;20473;-67
2022/03/03 10:55:07;;;;;;;0.60;0.60;;;3.70;99.90;;;;;;5060251;28;20440;-67
2022/03/03 10:57:57;;;;;;;3.17;2.20;;;3.60;99.90;;;;;;5058128;28;20427;-68
2022/03/03 11:00:44;;;;;;;0.40;0.40;;;3.70;99.90;;;;;;5051012;28;20432;-68
2022/03/03 11:03:32;;;;;;;0.80;0.80;;;3.70;99.90;;;;;;5057461;28;20437;-68
2022/03/03 11:06:20;;;;;;;2.30;2.20;;;3.40;99.90;;;;;;5057286;28;20977;-68
2022/03/03 11:09:08;;;;;;;0.50;0.50;;;3.20;99.90;;;;;;5055693;28;20480;-68
2022/03/03 11:11:55;;;;;;;1.23;1.23;;;3.20;99.90;;;;;;5044086;28;20557;-68
2022/03/03 11:14:43;;;;;;;0.70;0.70;;;3.00;99.90;;;;;;5050776;28;20453;-68
2022/03/03 11:17:31;;;;;;;0.70;0.70;;;3.20;99.90;;;;;;5057477;28;20421;-68
2022/03/03 11:20:20;;;;;;;0.50;0.50;;;3.40;99.90;;;;;;5057294;28;20511;-68
2022/03/03 11:23:07;;;;;;;1.23;0.70;;;3.40;99.90;;;;;;5056016;28;20421;-68
2022/03/03 11:25:54;;;;;;;0.43;0.43;;;3.20;99.90;;;;;;5057477;28;20448;-68
2022/03/03 11:28:41;;;;;;;0.60;0.60;;;3.50;99.90;;;;;;5056225;28;20432;-68
2022/03/03 11:31:31;;;;;;;0.50;0.50;;;3.80;99.90;;;;;;5056961;28;20510;-68
2022/03/03 11:34:24;;;;;;;1.27;1.17;;;3.90;99.90;;;;;;5055869;28;20445;-68
2022/03/03 11:37:21;;;;;;;1.17;1.07;;;4.10;99.90;;;;;;5056566;28;20566;-68
2022/03/03 11:40:09;;;;;;;0.50;0.50;;;4.20;99.90;;;;;;5056556;28;20502;-68
2022/03/03 11:42:56;;;;;;;0.50;0.50;;;4.20;99.90;;;;;;5046809;28;20494;-68
2022/03/03 11:45:50;;;;;;;0.97;0.97;;;4.10;99.90;;;;;;5047566;28;20468;-68
2022/03/03 11:48:39;;;;;;;0.50;0.50;;;4.00;99.90;;;;;;5053631;28;20527;-68
2022/03/03 11:51:34;;;;;;;0.50;0.50;;;4.10;99.90;;;;;;5053437;28;20518;-68
2022/03/03 11:54:28;;;;;;;0.50;0.50;;;4.10;99.90;;;;;;5052226;28;20456;-68
2022/03/03 11:57:27;;;;;;;0.50;0.50;;;4.00;99.90;;;;;;5053471;28;20432;-70
2022/03/03 12:00:18;;;;;;;0.50;0.50;;;3.80;99.90;;;;;;5052383;28;20425;-68
2022/03/03 12:03:07;;;;;;;0.50;0.50;;;3.90;99.90;;;;;;5051521;28;20429;-68
2022/03/03 12:06:04;;;;;;;17.83;4.30;;;4.10;99.90;;;;;;5053420;28;20445;-68
2022/03/03 12:08:51;;;;;;;0.50;0.50;;;4.30;99.90;;;;;;5049838;28;20534;-68
2022/03/03 12:11:40;;;;;;;0.50;0.50;;;4.50;99.90;;;;;;5051906;28;20417;-69
2022/03/03 12:14:32;;;;;;;0.50;0.50;;;4.60;99.90;;;;;;5053233;28;21156;-68
2022/03/03 12:17:40;;;;;;;0.50;0.50;;;4.70;99.90;;;;;;5051671;28;20795;-69
2022/03/03 12:20:32;;;;;;;0.60;0.60;;;4.90;99.90;;;;;;5054097;28;20432;-68
2022/03/03 12:23:23;;;;;;;0.50;0.50;;;5.00;99.90;;;;;;5053066;28;20424;-67
2022/03/03 12:26:10;;;;;;;0.50;0.50;;;5.00;99.90;;;;;;5051019;28;20449;-67
2022/03/03 12:28:59;;;;;;;0.50;0.50;;;5.10;99.90;;;;;;5035573;28;20840;-68
2022/03/03 12:31:46;;;;;;;2.60;2.30;;;5.20;99.90;;;;;;5051254;28;20432;-67
2022/03/03 12:34:33;;;;;;;0.50;0.50;;;5.10;99.90;;;;;;5053425;28;20448;-68
2022/03/03 12:37:20;;;;;;;0.80;0.70;;;4.70;99.90;;;;;;5052733;28;20440;-68
2022/03/03 12:40:08;;;;;;;1.37;1.37;;;4.50;99.90;;;;;;5044966;28;20426;-68
2022/03/03 12:42:55;;;;;;;1.70;1.53;;;4.30;99.90;;;;;;5052495;28;20473;-68
2022/03/03 12:45:44;;;;;;;0.40;0.40;;;4.30;99.90;;;;;;5055414;28;20503;-68
2022/03/03 12:48:33;;;;;;;0.50;0.50;;;4.20;99.90;;;;;;5052129;28;20455;-68
2022/03/03 12:51:24;;;;;;;0.40;0.40;;;4.60;99.90;;;;;;5049428;28;20554;-68
2022/03/03 12:54:11;;;;;;;0.87;0.70;;;4.80;99.90;;;;;;5053313;28;20921;-68
2022/03/03 12:57:00;;;;;;;3.00;2.80;;;4.80;99.90;;;;;;5054187;28;20425;-68
2022/03/03 12:59:47;;;;;;;0.50;0.50;;;4.50;99.90;;;;;;5053505;28;20424;-68
2022/03/03 13:02:51;;;;;;;1.70;1.43;;;4.40;99.90;;;;;;5054394;28;20416;-68
2022/03/03 13:05:41;;;;;;;0.40;0.40;;;4.60;99.90;;;;;;5053704;28;20956;-68
2022/03/03 13:08:30;;;;;;;0.83;0.83;;;4.80;99.90;;;;;;5053929;28;20437;-69
2022/03/03 13:11:19;;;;;;;3.70;1.77;;;5.00;99.90;;;;;;5053735;28;20779;-67
2022/03/03 13:14:08;;;;;;;11.37;1.27;;;4.60;99.90;;;;;;5053162;28;20463;-68
2022/03/03 13:16:55;;;;;;;2.00;1.27;;;4.60;99.90;;;;;;5055716;28;20511;-67
2022/03/03 13:19:50;;;;;;;0.50;0.50;;;4.50;99.90;;;;;;5054046;28;20511;-68
2022/03/03 13:22:37;;;;;;;0.40;0.40;;;4.50;99.90;;;;;;5052903;28;20448;-68
2022/03/03 13:25:25;;;;;;;0.50;0.50;;;4.40;99.90;;;;;;5053503;28;20436;-68
2022/03/03 13:28:24;;;;;;;0.40;0.40;;;4.50;99.90;;;;;;5054751;28;20427;-68
2022/03/03 13:31:12;;;;;;;0.80;0.73;;;4.70;99.90;;;;;;5050348;28;20447;-68
2022/03/03 13:34:02;;;;;;;0.70;0.70;;;4.60;99.90;;;;;;5051386;28;20463;-68
2022/03/03 13:36:53;;;;;;;0.80;0.80;;;4.70;99.90;;;;;;5051465;28;20441;-68
2022/03/03 13:39:40;;;;;;;0.40;0.40;;;4.00;99.90;;;;;;5053140;28;20440;-68
2022/03/03 13:42:27;;;;;;;0.50;0.50;;;4.10;99.90;;;;;;5053917;28;20435;-68
2022/03/03 13:45:25;;;;;;;0.50;0.50;;;4.00;99.90;;;;;;5052613;28;20455;-68
2022/03/03 13:48:14;;;;;;;0.50;0.50;;;4.00;99.90;;;;;;5052357;28;20437;-69
2022/03/03 13:51:04;;;;;;;2.47;2.20;;;3.80;99.90;;;;;;5051030;28;20421;-69
2022/03/03 13:54:00;;;;;;;0.50;0.50;;;3.70;99.90;;;;;;5050129;28;20470;-69
2022/03/03 13:56:47;;;;;;;0.50;0.50;;;3.80;99.90;;;;;;5051226;28;20449;-69
2022/03/03 13:59:52;;;;;;;0.60;0.60;;;4.00;99.90;;;;;;5051382;28;20913;-70
2022/03/03 14:02:50;;;;;;;2.60;1.43;;;4.00;99.90;;;;;;5050641;28;20428;-69
2022/03/03 14:05:42;;;;;;;2.00;1.37;;;3.90;99.90;;;;;;5052581;28;20487;-69
2022/03/03 14:08:31;;;;;;;0.40;0.40;;;3.70;99.90;;;;;;5051827;28;20519;-69
2022/03/03 14:11:27;;;;;;;0.50;0.50;;;3.50;99.90;;;;;;5051256;28;20421;-70
2022/03/03 14:14:20;;;;;;;0.50;0.50;;;3.50;99.90;;;;;;5050123;28;20480;-69
2022/03/03 14:17:07;;;;;;;0.50;0.50;;;3.40;99.90;;;;;;5051811;28;20425;-69
2022/03/03 14:19:54;;;;;;;0.47;0.47;;;3.40;99.90;;;;;;5049863;28;20433;-70
2022/03/03 14:22:41;;;;;;;4.23;2.97;;;3.60;99.90;;;;;;5045382;28;20416;-68
2022/03/03 14:25:29;;;;;;;0.40;0.40;;;3.70;99.90;;;;;;5059005;28;20467;-68
2022/03/03 14:28:19;;;;;;;0.50;0.50;;;3.70;99.90;;;;;;5066320;28;20416;-69
2022/03/03 14:31:06;;;;;;;0.50;0.50;;;3.80;99.90;;;;;;5064083;28;20431;-69
2022/03/03 14:33:53;;;;;;;0.70;0.70;;;3.80;99.90;;;;;;5065720;28;20464;-71
2022/03/03 14:36:40;;;;;;;0.50;0.50;;;4.00;99.90;;;;;;5063672;28;20456;-68
2022/03/03 14:39:27;;;;;;;0.40;0.40;;;4.00;99.90;;;;;;5054790;28;20449;-69
2022/03/03 14:42:14;;;;;;;0.50;0.50;;;4.10;99.90;;;;;;5052082;28;20448;-68